Pagrindinis puslapis
METAR-TAF:

METAR-TAF

Oro uostai :

Burgasas, Bulgarija

platuma: 42-29N, ilguma: 027-29E, Aukštis: 16 m

Dabartinis oras

Ataskaita buvo paskelbta 31 minutes, ne 03:00 UTC
Vėjas 11 kt iš Vakarų/Pietvakarių
Temperatūra 0°C
Drėgmė 86%
Slėgis 1012 hPa
Matomumas 10 km arba daugiau
nėra debesų žemiau 1500 m ir nėra kamuolinių lietaus debesų

METAR: LBBG 010300Z 24011KT CAVOK M00/M02 Q1012 NOSIG

Laikas: 05:31 (03:31 UTC)

Prognozė

Ataskaita buvo paskelbta 4 valandos ir 31 minutes, ne 23:00 UTC
Prognozė galioja nuo 01 metu 00 UTC su 01 metu 24 UTC
Vėjas 13 kt iš Vakarų
Matomumas 10 km arba daugiau
Išsisklaidę debesys ne aukštis 4500 ft
Laikinai
nuo 01 metu 07 UTC su 01 metu 13 UTC
Vėjas 17 kt iš Vakarų/Šiaurės Vakarų su gūsio iki 27 kt
Tapsmas
nuo 01 metu 18 UTC su 01 metu 20 UTC
Vėjas 4 kt nuo kintamojo kryptimis

TAF: LBBG 302300Z 0100/0124 26013KT 9999 SCT045 TEMPO 0107/0113 29017G27KT BECMG 0118/0120 VRB04KT

Orai ataskaitas ir orų prognozės (METAR, TAF).

turimą stotys yra geltonos ir raudonos taškus žemėlapyje.

Perkelti pele per norėdami pamatyti stoties vardą.

Tada spustelėkite, norėdami matyti oro stebėjimo ir prognozės.

Norėdami pakeisti žemėlapį: spustelėkite ant žalios mygtukų su juodo kryžiaus žemyn,; žalią mygtuką su brūkšneliu, jei norite nutolinti; arba žalių rodyklių gretimoms žemėlapius.


METAR-TAF: